createdAt,value
2022-08-26T12:07:59.240Z,19776.00
2022-08-26T12:08:59.286Z,20160.00
2022-08-26T12:09:59.170Z,19008.00
2022-08-26T12:40:34.014Z,20480.00
2022-08-26T12:41:33.898Z,19904.00
2022-08-26T12:43:27.908Z,21216.00
2022-08-26T12:44:27.905Z,22400.00
2022-08-26T12:45:27.972Z,22592.00
2022-08-26T12:46:27.868Z,21824.00
2022-08-26T12:47:41.888Z,21984.00
2022-08-26T12:48:27.847Z,21856.00
2022-08-26T12:49:27.836Z,20928.00
2022-08-26T12:50:27.836Z,20928.00
2022-08-26T12:51:27.799Z,22016.00
2022-08-26T12:52:27.789Z,23488.00
2022-08-26T12:53:27.774Z,23616.00
2022-08-26T12:54:27.764Z,22912.00
2022-08-26T12:55:27.763Z,21216.00
2022-08-26T12:56:27.746Z,19392.00
2022-08-26T12:57:27.738Z,20064.00
2022-08-26T12:58:27.722Z,20256.00
2022-08-26T12:59:27.711Z,20192.00
2022-08-26T13:00:28.514Z,19040.00
2022-08-26T13:01:27.810Z,19008.00
2022-08-26T13:02:27.679Z,17888.00
2022-08-26T13:03:27.652Z,17216.00
2022-08-26T13:04:27.650Z,17696.00
2022-08-26T13:05:27.627Z,17152.00
2022-08-26T13:06:27.630Z,16480.00
2022-08-26T13:07:27.601Z,16132.00
2022-08-26T13:08:27.599Z,18048.00
2022-08-26T13:09:27.590Z,18592.00
2022-08-26T13:10:30.977Z,19072.00
2022-08-26T13:11:27.569Z,18208.00
2022-08-26T13:12:27.631Z,16184.00
2022-08-26T13:13:27.540Z,15900.00
2022-08-26T13:14:27.524Z,17312.00
2022-08-26T13:15:27.514Z,17760.00
2022-08-26T13:16:27.561Z,16416.00
2022-08-26T13:17:27.480Z,15424.00
2022-08-26T13:18:27.474Z,14356.00
